createdAt,value
2023-04-24T00:02:58.893Z,10.07
2023-04-24T00:06:01.943Z,10.03
2023-04-24T00:09:04.322Z,9.99
2023-04-24T00:12:06.058Z,9.98
2023-04-24T00:15:10.196Z,9.90
2023-04-24T00:18:11.746Z,9.83
2023-04-24T00:21:13.353Z,9.79
2023-04-24T00:24:15.097Z,9.76
2023-04-24T00:27:16.701Z,9.68
2023-04-24T00:30:19.901Z,9.68
2023-04-24T00:33:21.660Z,9.67
2023-04-24T00:36:23.531Z,9.62
2023-04-24T00:39:25.705Z,9.61
2023-04-24T00:42:27.793Z,9.56
2023-04-24T00:45:32.345Z,9.56
2023-04-24T00:48:34.634Z,9.56
2023-04-24T00:51:37.709Z,9.51
2023-04-24T00:54:39.622Z,9.47
2023-04-24T00:57:41.465Z,9.46
2023-04-24T01:00:44.880Z,9.41
2023-04-24T01:03:46.666Z,9.44
2023-04-24T01:06:51.052Z,9.41
2023-04-24T01:09:54.088Z,9.36
2023-04-24T01:12:56.439Z,9.33
2023-04-24T01:15:59.653Z,9.38
2023-04-24T01:19:02.431Z,9.35
2023-04-24T01:22:04.568Z,9.30
2023-04-24T01:25:08.074Z,9.29
2023-04-24T01:28:09.690Z,9.29
2023-04-24T01:31:11.615Z,9.22
2023-04-24T01:34:13.854Z,9.18
2023-04-24T01:37:16.668Z,9.21
2023-04-24T01:40:19.734Z,9.25
2023-04-24T01:43:21.552Z,9.17
2023-04-24T01:46:23.822Z,9.16
2023-04-24T01:49:25.680Z,9.15
2023-04-24T01:52:28.202Z,9.18
2023-04-24T01:55:31.485Z,9.16
2023-04-24T01:58:33.206Z,9.21
2023-04-24T02:01:37.743Z,9.20
2023-04-24T02:04:40.279Z,9.23
2023-04-24T02:07:43.009Z,9.22
2023-04-24T02:10:45.878Z,9.24
2023-04-24T02:13:47.639Z,9.26
2023-04-24T02:16:49.372Z,9.25
2023-04-24T02:19:51.207Z,9.24
2023-04-24T02:22:52.868Z,9.29
2023-04-24T02:25:56.903Z,9.26
2023-04-24T02:28:59.166Z,9.26
2023-04-24T02:32:00.763Z,9.25
2023-04-24T02:35:02.387Z,9.23
2023-04-24T02:38:04.160Z,9.22
2023-04-24T02:41:07.833Z,9.16
2023-04-24T02:44:09.690Z,9.17
2023-04-24T02:47:11.551Z,9.18
2023-04-24T02:50:13.130Z,9.13
2023-04-24T02:53:14.892Z,9.14
2023-04-24T02:56:18.095Z,9.12
2023-04-24T02:59:19.926Z,9.14
2023-04-24T03:02:21.855Z,9.16
2023-04-24T03:05:23.747Z,9.17
2023-04-24T03:08:25.629Z,9.18
2023-04-24T03:11:28.741Z,9.14
2023-04-24T03:14:32.317Z,9.15
2023-04-24T03:17:34.496Z,9.08
2023-04-24T03:20:37.950Z,9.06
2023-04-24T03:23:41.733Z,9.06
2023-04-24T03:26:46.235Z,9.06
2023-04-24T03:30:07.372Z,9.02
2023-04-24T03:33:18.869Z,8.98
2023-04-24T03:36:31.745Z,8.97
2023-04-24T03:39:33.969Z,8.94
2023-04-24T03:42:39.240Z,8.90
2023-04-24T03:45:41.597Z,8.89
2023-04-24T03:48:44.162Z,8.85
2023-04-24T03:51:46.370Z,8.84
2023-04-24T03:54:58.068Z,8.84
2023-04-24T03:58:02.430Z,8.85
2023-04-24T04:01:04.032Z,8.84
2023-04-24T04:04:18.144Z,8.86
2023-04-24T04:07:21.154Z,8.84
2023-04-24T04:10:22.939Z,8.80
2023-04-24T04:13:26.146Z,8.78
2023-04-24T04:16:28.937Z,8.76
2023-04-24T04:19:37.234Z,8.73
2023-04-24T04:22:39.094Z,8.73
2023-04-24T04:25:44.030Z,8.75
2023-04-24T04:28:48.753Z,8.76
2023-04-24T04:31:51.045Z,8.76
2023-04-24T04:34:54.414Z,8.75
2023-04-24T04:37:59.836Z,8.76
2023-04-24T04:41:24.775Z,8.78
2023-04-24T04:44:30.395Z,8.79
2023-04-24T04:47:33.342Z,8.82
2023-04-24T04:50:36.277Z,8.83
2023-04-24T04:53:42.171Z,8.81
2023-04-24T04:56:43.910Z,8.81
2023-04-24T04:59:47.461Z,8.80
2023-04-24T05:03:05.963Z,8.77
2023-04-24T05:06:16.252Z,8.75
2023-04-24T05:09:19.460Z,8.73
2023-04-24T05:12:30.617Z,8.70
2023-04-24T05:15:35.155Z,8.67
2023-04-24T05:18:36.902Z,8.65
2023-04-24T05:21:40.545Z,8.67
2023-04-24T05:24:43.092Z,8.65
2023-04-24T05:28:04.749Z,8.62
2023-04-24T05:31:09.813Z,8.65
2023-04-24T05:34:11.844Z,8.67
2023-04-24T05:37:17.531Z,8.70
2023-04-24T05:40:19.759Z,8.66
2023-04-24T05:43:21.437Z,8.65
2023-04-24T05:46:24.605Z,8.68
2023-04-24T05:49:26.187Z,8.68
2023-04-24T05:52:28.034Z,8.65
2023-04-24T05:55:31.555Z,8.64
2023-04-24T05:58:33.626Z,8.60
2023-04-24T06:01:37.466Z,8.55
2023-04-24T06:04:48.812Z,8.54
2023-04-24T06:07:51.108Z,8.48
2023-04-24T06:10:55.637Z,8.48
2023-04-24T06:13:58.002Z,8.51
2023-04-24T06:17:16.444Z,8.53
2023-04-24T06:20:18.520Z,8.46
2023-04-24T06:23:20.699Z,8.51
2023-04-24T06:26:25.334Z,8.45
2023-04-24T06:29:27.509Z,8.48
2023-04-24T06:32:32.136Z,8.58
2023-04-24T06:35:35.074Z,8.71
2023-04-24T06:38:36.855Z,8.75
2023-04-24T06:41:38.749Z,8.85
2023-04-24T06:44:43.973Z,8.86
2023-04-24T06:47:47.744Z,8.87
2023-04-24T06:50:49.303Z,8.84
2023-04-24T06:53:51.161Z,8.83
2023-04-24T06:56:53.165Z,8.89
2023-04-24T06:59:57.052Z,8.86
2023-04-24T07:03:00.205Z,8.86
2023-04-24T07:06:02.125Z,8.85
2023-04-24T07:09:04.691Z,8.85
2023-04-24T07:12:06.866Z,8.94
2023-04-24T07:15:09.487Z,8.91
2023-04-24T07:18:13.928Z,8.84
2023-04-24T07:21:15.734Z,8.78
2023-04-24T07:24:17.431Z,8.71
2023-04-24T07:27:19.056Z,8.76
2023-04-24T07:30:20.770Z,8.76
2023-04-24T07:33:23.844Z,8.73
2023-04-24T07:36:26.977Z,8.82
2023-04-24T07:39:28.814Z,8.94
2023-04-24T07:42:31.981Z,8.95
2023-04-24T07:45:37.091Z,9.02
2023-04-24T07:48:40.770Z,9.02
2023-04-24T07:51:42.797Z,8.83
2023-04-24T07:54:44.933Z,8.82
2023-04-24T07:57:46.905Z,8.81
2023-04-24T08:00:48.498Z,8.85
2023-04-24T08:03:51.977Z,8.81
2023-04-24T08:06:53.922Z,8.84
2023-04-24T08:09:55.674Z,8.88
2023-04-24T08:12:57.755Z,8.90
2023-04-24T08:15:59.347Z,8.78
2023-04-24T08:19:02.749Z,8.84
2023-04-24T08:22:05.225Z,8.81
2023-04-24T08:25:07.404Z,8.74
2023-04-24T08:28:11.764Z,8.82
2023-04-24T08:31:13.443Z,9.03
2023-04-24T08:34:17.352Z,9.13
2023-04-24T08:37:19.160Z,9.08
2023-04-24T08:40:23.470Z,9.25
2023-04-24T08:43:28.127Z,9.37
2023-04-24T08:46:31.579Z,9.30
2023-04-24T08:49:35.134Z,9.27
2023-04-24T08:52:37.198Z,9.19
2023-04-24T08:55:39.105Z,9.20
2023-04-24T08:58:41.082Z,9.18
2023-04-24T09:01:44.082Z,9.20
2023-04-24T09:04:48.657Z,9.24
2023-04-24T09:07:51.946Z,9.21
2023-04-24T09:10:54.634Z,9.16
2023-04-24T09:13:57.299Z,9.14
2023-04-24T09:16:58.978Z,9.21
2023-04-24T09:20:02.472Z,9.33
2023-04-24T09:23:04.655Z,9.40
2023-04-24T09:26:08.967Z,9.37
2023-04-24T09:29:15.496Z,9.23
2023-04-24T09:32:23.281Z,9.24
2023-04-24T09:35:27.726Z,9.25
2023-04-24T09:38:33.058Z,9.20
2023-04-24T09:41:35.538Z,9.17
2023-04-24T09:44:37.366Z,9.17
2023-04-24T09:47:42.964Z,9.27
2023-04-24T09:50:49.293Z,9.42
2023-04-24T09:53:53.751Z,9.39
2023-04-24T09:57:00.944Z,9.29
2023-04-24T10:00:04.031Z,9.22
2023-04-24T10:03:13.708Z,9.18
2023-04-24T10:06:18.005Z,9.07
2023-04-24T10:09:20.508Z,8.98
2023-04-24T10:12:22.428Z,8.90
2023-04-24T10:15:26.184Z,8.89
2023-04-24T10:18:28.218Z,8.96
2023-04-24T10:21:32.416Z,9.05
2023-04-24T10:24:34.680Z,8.92
2023-04-24T10:27:37.211Z,8.93
2023-04-24T10:30:40.184Z,8.93
2023-04-24T10:33:42.570Z,8.95
2023-04-24T10:36:47.078Z,8.78
2023-04-24T10:39:49.613Z,8.86
2023-04-24T10:42:53.470Z,8.97
2023-04-24T10:46:02.074Z,9.11
2023-04-24T10:49:05.179Z,9.23
2023-04-24T10:52:09.976Z,9.25
2023-04-24T10:55:13.372Z,9.20
2023-04-24T10:58:17.430Z,9.21
2023-04-24T11:01:27.398Z,9.03
2023-04-24T11:04:32.920Z,8.79
2023-04-24T11:21:39.577Z,8.14
2023-04-24T11:24:50.156Z,8.21
2023-04-24T11:28:04.210Z,8.31
2023-04-24T11:31:20.748Z,8.24
2023-04-24T11:34:22.991Z,8.10
2023-04-24T11:37:27.645Z,7.95
2023-04-24T11:40:29.261Z,7.96
2023-04-24T11:46:35.240Z,8.15
2023-04-24T11:49:37.953Z,8.10
2023-04-24T11:52:41.476Z,8.01
2023-04-24T11:55:43.086Z,7.83
2023-04-24T11:58:45.564Z,7.71
2023-04-24T12:01:47.687Z,7.57
2023-04-24T12:04:49.695Z,7.51
2023-04-24T12:07:55.924Z,7.50
2023-04-24T12:10:57.546Z,7.51
2023-04-24T12:14:10.556Z,7.57
2023-04-24T12:17:12.703Z,7.60
2023-04-24T12:20:15.182Z,7.63
2023-04-24T12:23:34.016Z,7.70
2023-04-24T12:26:35.739Z,7.72
2023-04-24T12:29:37.318Z,7.62
2023-04-24T12:32:42.126Z,7.56
2023-04-24T12:35:44.063Z,7.43
2023-04-24T12:38:47.715Z,7.36
2023-04-24T12:41:57.689Z,7.35
2023-04-24T12:45:00.870Z,7.10
2023-04-24T12:48:02.650Z,7.03
2023-04-24T12:51:04.611Z,7.17
2023-04-24T12:54:08.332Z,7.20
2023-04-24T12:57:10.018Z,7.25
2023-04-24T13:00:12.631Z,7.44
2023-04-24T13:03:14.551Z,7.49
2023-04-24T13:06:16.536Z,7.32
2023-04-24T13:09:19.435Z,7.10
2023-04-24T13:12:21.396Z,6.95
2023-04-24T13:15:23.262Z,6.92
2023-04-24T13:18:24.844Z,6.77
2023-04-24T13:21:27.396Z,6.78
2023-04-24T13:24:30.415Z,6.85
2023-04-24T13:27:32.248Z,6.89
2023-04-24T13:30:33.942Z,6.98
2023-04-24T13:33:35.651Z,6.96
2023-04-24T13:36:37.415Z,6.90
2023-04-24T13:39:42.344Z,6.91
2023-04-24T13:42:44.305Z,7.01
2023-04-24T13:45:46.015Z,6.98
2023-04-24T13:48:47.783Z,7.05
2023-04-24T13:51:49.370Z,7.04
2023-04-24T13:54:52.518Z,6.99
2023-04-24T13:57:56.131Z,7.05
2023-04-24T14:00:57.912Z,7.04
2023-04-24T14:04:01.011Z,7.03
2023-04-24T14:07:03.023Z,7.09
2023-04-24T14:10:06.690Z,7.02
2023-04-24T14:13:08.308Z,6.99
2023-04-24T14:16:10.865Z,6.92
2023-04-24T14:19:12.474Z,6.94
2023-04-24T14:22:14.656Z,6.98
2023-04-24T14:25:17.782Z,6.83
2023-04-24T14:28:20.090Z,6.81
2023-04-24T14:31:21.772Z,6.94
2023-04-24T14:34:23.369Z,6.95
2023-04-24T14:37:25.596Z,6.86
2023-04-24T14:40:56.313Z,6.74
2023-04-24T14:43:50.826Z,6.77
2023-04-24T14:46:52.664Z,6.73
2023-04-24T14:49:54.313Z,6.77
2023-04-24T14:52:58.751Z,6.71
2023-04-24T14:56:02.132Z,6.72
2023-04-24T14:59:03.730Z,6.69
2023-04-24T15:02:15.442Z,6.65
2023-04-24T15:05:19.035Z,6.63
2023-04-24T15:08:20.798Z,6.63
2023-04-24T15:11:24.180Z,6.62
2023-04-24T15:14:28.427Z,6.55
2023-04-24T15:17:31.996Z,6.64
2023-04-24T15:20:37.300Z,6.60
2023-04-24T15:23:40.978Z,6.66
2023-04-24T15:26:44.062Z,6.76
2023-04-24T15:29:46.158Z,6.80
2023-04-24T15:32:48.446Z,6.82
2023-04-24T15:35:50.183Z,6.86
2023-04-24T15:38:51.883Z,6.92
2023-04-24T15:41:55.035Z,6.88
2023-04-24T15:44:56.615Z,6.85
2023-04-24T15:47:58.764Z,6.81
2023-04-24T15:51:01.410Z,6.78
2023-04-24T15:54:03.145Z,6.78
2023-04-24T15:57:06.318Z,6.74
2023-04-24T16:00:09.714Z,6.82
2023-04-24T16:03:14.262Z,6.97
2023-04-24T16:06:16.317Z,7.03
2023-04-24T16:09:17.869Z,6.95
2023-04-24T16:12:21.132Z,6.87
2023-04-24T16:15:22.718Z,6.90
2023-04-24T16:18:24.622Z,6.89
2023-04-24T16:21:27.306Z,6.95
2023-04-24T16:24:29.406Z,6.95
2023-04-24T16:27:32.435Z,6.96
2023-04-24T16:30:34.225Z,6.96
2023-04-24T16:33:35.930Z,6.97
2023-04-24T16:36:37.675Z,6.96
2023-04-24T16:39:44.081Z,6.93
2023-04-24T16:42:48.674Z,6.93
2023-04-24T16:45:50.274Z,6.93
2023-04-24T16:48:52.076Z,6.88
2023-04-24T16:51:53.753Z,6.87
2023-04-24T16:54:55.493Z,6.86
2023-04-24T16:58:01.003Z,6.81
2023-04-24T17:01:02.654Z,6.81
2023-04-24T17:04:04.368Z,6.83
2023-04-24T17:07:06.046Z,6.83
2023-04-24T17:10:11.631Z,6.86
2023-04-24T17:13:15.141Z,6.89
2023-04-24T17:16:16.778Z,6.89
2023-04-24T17:19:18.482Z,6.90
2023-04-24T17:22:20.079Z,6.90
2023-04-24T17:25:21.875Z,6.92
2023-04-24T17:28:26.290Z,6.92
2023-04-24T17:31:28.012Z,6.88
2023-04-24T17:34:29.646Z,6.88
2023-04-24T17:37:31.750Z,6.88
2023-04-24T17:40:33.273Z,6.85
2023-04-24T17:43:36.838Z,6.79
2023-04-24T17:46:38.696Z,6.73
2023-04-24T17:49:40.749Z,6.74
2023-04-24T17:52:42.448Z,6.73
2023-04-24T17:55:44.629Z,6.71
2023-04-24T17:58:48.151Z,6.65
2023-04-24T18:01:50.578Z,6.57
2023-04-24T18:04:54.968Z,6.50
2023-04-24T18:07:57.510Z,6.45
2023-04-24T18:10:59.129Z,6.40
2023-04-24T18:14:02.100Z,6.31
2023-04-24T18:17:03.720Z,6.31
2023-04-24T18:20:06.401Z,6.31
2023-04-24T18:23:08.480Z,6.26
2023-04-24T18:26:10.051Z,6.24
2023-04-24T18:29:13.017Z,6.22
2023-04-24T18:32:14.738Z,6.24
2023-04-24T18:35:17.060Z,6.20
2023-04-24T18:38:18.680Z,6.18
2023-04-24T18:41:20.253Z,6.15
2023-04-24T18:44:23.754Z,6.16
2023-04-24T18:47:25.332Z,6.18
2023-04-24T18:50:29.776Z,6.18
2023-04-24T18:53:31.680Z,6.20
2023-04-24T18:56:33.444Z,6.18
2023-04-24T18:59:36.669Z,6.17
2023-04-24T19:02:38.653Z,6.17
2023-04-24T19:05:40.343Z,6.18
2023-04-24T19:08:44.625Z,6.16
2023-04-24T19:11:47.091Z,6.16
2023-04-24T19:14:51.963Z,6.17
2023-04-24T19:17:54.006Z,6.21
2023-04-24T19:20:55.577Z,6.27
2023-04-24T19:23:57.477Z,6.31
2023-04-24T19:26:59.220Z,6.29
2023-04-24T19:30:02.152Z,6.25
2023-04-24T19:33:03.914Z,6.24
2023-04-24T19:36:06.273Z,6.24
2023-04-24T19:39:08.002Z,6.20
2023-04-24T19:42:10.819Z,6.16
2023-04-24T19:45:14.167Z,6.17
2023-04-24T19:48:15.897Z,6.21
2023-04-24T19:51:18.334Z,6.19
2023-04-24T19:54:20.532Z,6.20
2023-04-24T19:57:22.310Z,6.20
2023-04-24T20:00:25.409Z,6.19
2023-04-24T20:03:33.598Z,6.18
2023-04-24T20:06:36.370Z,6.18
2023-04-24T20:09:38.020Z,6.19
2023-04-24T20:12:39.768Z,6.19
2023-04-24T20:15:42.966Z,6.21
2023-04-24T20:18:44.846Z,6.23
2023-04-24T20:21:46.676Z,6.22
2023-04-24T20:24:48.752Z,6.25
2023-04-24T20:27:50.419Z,6.22
2023-04-24T20:30:53.835Z,6.20
2023-04-24T20:33:55.727Z,6.19
2023-04-24T20:36:58.871Z,6.15
2023-04-24T20:40:05.195Z,6.12
2023-04-24T20:43:07.895Z,6.06
2023-04-24T20:46:11.239Z,6.04
2023-04-24T20:49:13.009Z,6.03
2023-04-24T20:52:14.840Z,6.01
2023-04-24T20:55:17.767Z,6.06
2023-04-24T20:58:21.155Z,6.04
2023-04-24T21:01:25.078Z,6.03
2023-04-24T21:04:26.685Z,5.99
2023-04-24T21:07:28.603Z,5.98
2023-04-24T21:10:30.822Z,5.96
2023-04-24T21:13:32.587Z,5.95
2023-04-24T21:16:35.744Z,5.95
2023-04-24T21:19:37.509Z,5.93
2023-04-24T21:22:39.649Z,5.90
2023-04-24T21:25:41.288Z,5.89
2023-04-24T21:28:43.087Z,5.88
2023-04-24T21:31:46.451Z,5.89
2023-04-24T21:34:49.257Z,5.85
2023-04-24T21:37:50.882Z,5.83
2023-04-24T21:40:53.344Z,5.81
2023-04-24T21:43:55.227Z,5.79
2023-04-24T21:46:59.795Z,5.79
2023-04-24T21:50:01.393Z,5.78
2023-04-24T21:53:03.182Z,5.77
2023-04-24T21:56:05.301Z,5.80
2023-04-24T21:59:07.217Z,5.79
2023-04-24T22:02:10.425Z,5.79
2023-04-24T22:05:18.865Z,5.79
2023-04-24T22:08:20.460Z,5.77
2023-04-24T22:11:26.758Z,5.73
2023-04-24T22:14:28.957Z,5.74
2023-04-24T22:17:33.684Z,5.71
2023-04-24T22:20:35.309Z,5.71
2023-04-24T22:23:37.178Z,5.72
2023-04-24T22:26:39.218Z,5.70
2023-04-24T22:29:40.939Z,5.68
2023-04-24T22:32:44.321Z,5.66
2023-04-24T22:35:45.922Z,5.64
2023-04-24T22:38:47.712Z,5.61
2023-04-24T22:41:50.182Z,5.59
2023-04-24T22:44:51.759Z,5.56
2023-04-24T22:47:54.984Z,5.51
2023-04-24T22:50:56.766Z,5.48
2023-04-24T22:53:58.515Z,5.47
2023-04-24T22:57:01.196Z,5.42
2023-04-24T23:00:03.917Z,5.43
2023-04-24T23:03:07.152Z,5.36
2023-04-24T23:06:08.998Z,5.34
2023-04-24T23:09:10.755Z,5.31
2023-04-24T23:12:12.427Z,5.27
2023-04-24T23:15:14.120Z,5.24
2023-04-24T23:18:17.457Z,5.25
2023-04-24T23:21:19.231Z,5.22
2023-04-24T23:24:20.947Z,5.23
2023-04-24T23:27:22.650Z,5.21
2023-04-24T23:30:24.520Z,5.18
2023-04-24T23:33:28.646Z,5.18
2023-04-24T23:36:30.709Z,5.19
2023-04-24T23:39:32.609Z,5.21
2023-04-24T23:42:34.379Z,5.21
2023-04-24T23:45:36.068Z,5.18
2023-04-24T23:48:39.053Z,5.15
2023-04-24T23:51:41.048Z,5.14
2023-04-24T23:54:42.656Z,5.14
2023-04-24T23:57:44.283Z,5.13
